Flight Track Log - Related Links

Times and Time Zones

All times are in EDT time to prevent confusion due to time zone crossing. See the SKW5476 flight status page for this flight to view local times or setup timezone preferences in your user account.

Time Position Orientation Groundspeed Altitude Reporting Facility
EDT Latitude Longitude Course Direction KTS MPH feet Rate Location/Type
Fri 03:05:22 PM 37.6667 -122.3667 North 156 180 1,600  Level Northern Cal TRACON
Fri 03:06:04 PM 37.6908 -122.3628 North 164 189 2,500 1,340 Climbing Oakland Center
Fri 03:07:05 PM 37.7425 -122.3656 358° North 181 208 3,900 1,415 Climbing Oakland Center
Fri 03:08:00 PM 37.9046 -122.3737 345° North  Level FlightAware Approximate
Fri 03:08:07 PM 37.7922 -122.3783 349° North 186 214 5,400  Level Oakland Center
Fri 03:09:00 PM 37.9717 -122.3667 North  Level FlightAware Approximate
Fri 03:09:08 PM 37.8461 -122.3778 360° North 191 220 6,800  Level Oakland Center
Fri 03:10:00 PM 38.0420 -122.3667 North  Level FlightAware Approximate
Fri 03:10:10 PM 37.9006 -122.3806 358° North 196 226 8,000  Level Oakland Center
Fri 03:11:11 PM 37.9586 -122.3764 North 208 239 9,300 1,328 Climbing Oakland Center
Fri 03:12:21 PM 38.0286 -122.3639 North 212 244 10,900 1,328 Climbing Oakland Center
Fri 03:13:22 PM 38.0864 -122.3550 North 210 242 12,200 1,377 Climbing Oakland Center
Fri 03:14:23 PM 38.1564 -122.3442 North 212 244 13,700 1,220 Climbing Oakland Center
Fri 03:15:25 PM 38.2131 -122.3347 North 208 239 14,700 976 Climbing Oakland Center
Fri 03:16:26 PM 38.2733 -122.3264 North 215 247 15,700 976 Climbing Oakland Center
Fri 03:17:28 PM 38.3322 -122.3183 North 213 245 16,700 976 Climbing Oakland Center
Fri 03:18:29 PM 38.3908 -122.3056 10° North 213 245 17,700 927 Climbing Oakland Center
Fri 03:19:31 PM 38.4478 -122.2964 North 209 241 18,600 823 Climbing Oakland Center
Fri 03:20:33 PM 38.5056 -122.2875 North 209 241 19,400 829 Climbing Oakland Center
Fri 03:21:34 PM 38.5783 -122.2778 North 219 252 20,300 829 Climbing Oakland Center
Fri 03:22:36 PM 38.6367 -122.2686 North 215 247 21,100 732 Climbing Oakland Center
Fri 03:23:37 PM 38.6981 -122.2603 North 218 251 21,800 634 Climbing Oakland Center
Fri 03:24:39 PM 38.7583 -122.2503 North 218 251 22,400 634 Climbing Oakland Center
Fri 03:25:40 PM 38.8208 -122.2397 North 226 260 23,100 683 Climbing Oakland Center
Fri 03:26:42 PM 38.8814 -122.2297 North 221 254 23,800 488 Climbing Oakland Center
Fri 03:27:43 PM 38.9422 -122.2219 North 219 252 24,100 146 Climbing Oakland Center
Fri 03:28:45 PM 39.0092 -122.2100 North 242 278 24,100  Level Oakland Center
Fri 03:29:47 PM 39.0769 -122.1983 North 246 283 24,100  Level Oakland Center
Fri 03:30:48 PM 39.1442 -122.1897 North 242 278 24,100  Level Oakland Center
Fri 03:31:50 PM 39.2225 -122.1781 North 239 275 24,100  Level Oakland Center
Fri 03:32:51 PM 39.2872 -122.1667 North 235 270 24,100  Level Oakland Center
Fri 03:33:53 PM 39.3519 -122.1561 North 235 270 24,100  Level Oakland Center
Fri 03:34:55 PM 39.4169 -122.1469 North 236 272 24,100  Level Oakland Center
Fri 03:35:56 PM 39.4817 -122.1364 North 236 272 24,100  Level Oakland Center
Fri 03:36:58 PM 39.5472 -122.1264 North 234 269 24,100  Level Oakland Center
Fri 03:37:59 PM 39.6106 -122.1147 North 231 266 24,100  Level Oakland Center
Fri 03:39:01 PM 39.6739 -122.1033 North 231 266 24,100  Level Oakland Center
Fri 03:40:03 PM 39.7367 -122.0925 North 228 262 24,100  Level Oakland Center
Fri 03:41:04 PM 39.8119 -122.0792 North 230 265 24,100  Level Oakland Center
Fri 03:42:06 PM 39.8744 -122.0692 North 228 262 24,100  Level Oakland Center
Fri 03:43:07 PM 39.9367 -122.0600 North 226 260 24,100  Level Oakland Center
Fri 03:44:09 PM 39.9986 -122.0497 North 227 261 24,100  Level Oakland Center
Fri 03:45:11 PM 40.0597 -122.0386 North 226 260 24,100  Level Oakland Center
Fri 03:46:12 PM 40.1222 -122.0283 North 228 262 24,100  Level Oakland Center
Fri 03:47:14 PM 40.1964 -122.0142 North 227 261 24,100  Level Oakland Center
Fri 03:48:15 PM 40.2592 -122.0044 North 228 262 24,100  Level Oakland Center
Fri 03:49:17 PM 40.3214 -121.9956 North 226 260 24,100  Level Oakland Center
Fri 03:50:19 PM 40.3833 -121.9850 North 226 260 24,100  Level Oakland Center
Fri 03:51:20 PM 40.4464 -121.9742 North 230 265 24,100  Level Oakland Center
Fri 03:52:22 PM 40.5078 -121.9642 North 225 259 24,100  Level Oakland Center
Fri 03:53:23 PM 40.5817 -121.9531 North 222 255 24,100  Level Oakland Center
Fri 03:54:25 PM 40.6436 -121.9419 North 225 259 24,100  Level Oakland Center
Fri 03:55:27 PM 40.7058 -121.9322 North 226 260 24,100  Level Oakland Center
Fri 03:56:28 PM 40.7681 -121.9214 North 227 261 24,100  Level Oakland Center
Fri 03:57:30 PM 40.8303 -121.9106 North 225 259 24,100  Level Oakland Center
Fri 03:58:32 PM 40.8925 -121.8997 North 224 258 24,100  Level Oakland Center
Fri 03:59:33 PM 40.9547 -121.8894 North 225 259 24,100  Level Oakland Center
Fri 04:00:35 PM 41.0303 -121.8764 North 227 261 24,100  Level Oakland Center
Fri 04:01:37 PM 41.0936 -121.8681 North 228 262 24,100  Level Oakland Center
Fri 04:02:30 PM 41.1447 -121.8622 North 229 264 24,100  Level Seattle Center
Fri 04:03:31 PM 41.2083 -121.8486 North 228 262 24,100  Level Seattle Center
Fri 04:04:32 PM 41.2722 -121.8386 North 231 266 24,100  Level Seattle Center
Fri 04:05:34 PM 41.3350 -121.8272 North 228 262 24,100  Level Seattle Center
Fri 04:06:35 PM 41.3967 -121.8178 North 225 259 24,100  Level Seattle Center
Fri 04:07:36 PM 41.4597 -121.8061 North 227 261 24,100  Level Seattle Center
Fri 04:08:37 PM 41.5219 -121.7958 North 226 260 24,100  Level Seattle Center
Fri 04:09:38 PM 41.5836 -121.7861 North 224 258 24,100  Level Seattle Center
Fri 04:10:39 PM 41.6589 -121.7711 North 229 264 24,100  Level Seattle Center
Fri 04:11:40 PM 41.7228 -121.7611 North 231 266 24,100  Level Seattle Center
Fri 04:12:41 PM 41.7847 -121.7497 North 228 262 24,100  Level Seattle Center
Fri 04:13:42 PM 41.8478 -121.7389 North 229 264 24,100  Level Seattle Center
Fri 04:15:44 PM 41.9725 -121.7158 North 227 261 24,100  Level Seattle Center
Fri 04:16:45 PM 42.0344 -121.7053 North 227 261 24,100  Level Seattle Center
Fri 04:17:46 PM 42.0958 -121.6958 North 223 257 24,100  Level Seattle Center
Fri 04:18:48 PM 42.1575 -121.6839 North 225 259 24,100  Level Seattle Center
Fri 04:19:49 PM 42.2314 -121.6711 North 223 257 24,100  Level Seattle Center
Fri 04:20:50 PM 42.2933 -121.6603 North 225 259 24,100  Level Seattle Center
Fri 04:21:51 PM 42.3547 -121.6494 North 224 258 24,100  Level Seattle Center
Fri 04:22:52 PM 42.4181 -121.6381 North 228 262 24,100  Level Seattle Center
Fri 04:23:53 PM 42.4800 -121.6261 North 226 260 24,100  Level Seattle Center
Fri 04:24:54 PM 42.5436 -121.6153 North 229 264 24,100  Level Seattle Center
Fri 04:25:55 PM 42.6075 -121.6044 North 230 265 24,100  Level Seattle Center
Fri 04:26:56 PM 42.6708 -121.5931 North 228 262 24,100 -443 Level Seattle Center
Fri 04:27:57 PM 42.7369 -121.5803 North 237 273 23,200 -1,131 Descending Seattle Center
Fri 04:28:58 PM 42.8089 -121.5681 North 257 296 21,800 -1,268 Descending Seattle Center
Fri 04:30:00 PM 42.8819 -121.5569 North 262 302 20,600 -1,268 Descending Seattle Center
Fri 04:31:01 PM 42.9683 -121.5394 North 260 299 19,200 -1,328 Descending Seattle Center
Fri 04:32:02 PM 43.0392 -121.5297 North 257 296 17,900 -1,082 Descending Seattle Center
Fri 04:33:03 PM 43.1094 -121.5175 North 256 295 17,000 -1,131 Descending Seattle Center
Fri 04:34:04 PM 43.1803 -121.5372 349° North 259 298 15,600 -1,279 Descending Seattle Center
Fri 04:35:05 PM 43.2522 -121.5464 355° North 259 298 14,400 -1,131 Descending Seattle Center
Fri 04:36:06 PM 43.3217 -121.5264 12° North 255 293 13,300 -1,082 Descending Seattle Center
Fri 04:37:07 PM 43.3914 -121.5108 North 254 292 12,200 -590 Descending Seattle Center
Fri 04:38:08 PM 43.4583 -121.4961 North 247 284 12,100 -49 Descending Seattle Center
Fri 04:39:09 PM 43.5233 -121.4789 11° North 240 276 12,100  Level Seattle Center
Fri 04:40:10 PM 43.5961 -121.4553 13° North 237 273 12,100  Level Seattle Center
Fri 04:41:12 PM 43.6592 -121.4242 20° North 240 276 12,100  Level Seattle Center
Fri 04:42:13 PM 43.7222 -121.3967 17° North 237 273 12,100  Level Seattle Center
Fri 04:43:14 PM 43.7847 -121.3678 18° North 237 273 12,100  Level Seattle Center
Fri 04:44:15 PM 43.8469 -121.3381 19° North 237 273 12,100 -148 Level Seattle Center
Fri 04:45:16 PM 43.9089 -121.3103 18° North 235 270 11,800 -738 Descending Seattle Center
Fri 04:46:17 PM 43.9728 -121.2800 19° North 240 276 10,600 -1,230 Descending Seattle Center
Fri 04:47:18 PM 44.0372 -121.2506 18° North 244 281 9,300 -1,426 Descending Seattle Center
Fri 04:48:19 PM 44.1000 -121.2217 18° North 239 275 7,700 -1,475 Descending Seattle Center
Fri 04:49:20 PM 44.1481 -121.1658 40° Northeast 233 268 6,300 -1,377 Descending Seattle Center

Login

Don't have an account? Register now (free) for customized features, flight alerts, and more!